createdAt,value
2023-03-22T00:00:58.240Z,19.17
2023-03-22T00:03:27.616Z,19.83
2023-03-22T00:05:58.539Z,19.40
2023-03-22T00:08:26.432Z,18.83
2023-03-22T00:10:54.313Z,18.97
2023-03-22T00:13:22.186Z,20.00
2023-03-22T00:15:51.486Z,20.03
2023-03-22T00:18:20.085Z,20.37
2023-03-22T00:20:48.904Z,20.43
2023-03-22T00:23:17.061Z,20.73
2023-03-22T00:25:45.198Z,20.47
2023-03-22T00:28:13.592Z,20.27
2023-03-22T00:30:41.684Z,20.87
2023-03-22T00:33:10.923Z,19.67
2023-03-22T00:35:38.880Z,20.00
2023-03-22T00:38:14.201Z,20.37
2023-03-22T00:40:43.144Z,21.23
2023-03-22T00:43:11.619Z,19.37
2023-03-22T00:45:40.883Z,19.53
2023-03-22T00:48:11.736Z,19.03
2023-03-22T00:50:41.159Z,19.67
2023-03-22T00:53:09.235Z,19.37
2023-03-22T00:55:37.894Z,20.17
2023-03-22T00:58:06.632Z,18.90
2023-03-22T01:00:34.550Z,18.87
2023-03-22T01:03:04.945Z,18.50
2023-03-22T01:05:34.965Z,18.20
2023-03-22T01:08:06.278Z,17.73
2023-03-22T01:10:34.223Z,18.30
2023-03-22T01:13:02.137Z,16.60
2023-03-22T01:15:30.022Z,16.30
2023-03-22T01:17:58.391Z,17.30
2023-03-22T01:20:26.707Z,16.87
2023-03-22T01:22:55.964Z,16.83
2023-03-22T01:25:23.894Z,16.33
2023-03-22T01:27:51.790Z,16.67
2023-03-22T01:30:19.792Z,16.73
2023-03-22T01:32:47.653Z,16.23
2023-03-22T01:35:17.760Z,19.37
2023-03-22T01:37:45.698Z,16.37
2023-03-22T01:40:16.131Z,18.93
2023-03-22T01:42:45.316Z,18.20
2023-03-22T01:45:40.240Z,17.97
2023-03-22T01:48:14.838Z,17.90
2023-03-22T01:50:44.948Z,18.43
2023-03-22T01:53:14.825Z,18.17
2023-03-22T01:55:45.439Z,18.77
2023-03-22T01:58:18.159Z,17.87
2023-03-22T02:00:53.943Z,17.87
2023-03-22T02:03:46.514Z,61.50
2023-03-22T02:06:14.512Z,22.90
2023-03-22T02:08:43.217Z,22.90
2023-03-22T02:11:18.252Z,23.10
2023-03-22T02:14:13.655Z,22.47
2023-03-22T02:17:11.152Z,23.07
2023-03-22T02:20:24.443Z,46.83
2023-03-22T02:23:23.069Z,22.50
2023-03-22T02:26:13.845Z,20.63
2023-03-22T02:28:50.212Z,22.77
2023-03-22T02:31:28.855Z,17.53
2023-03-22T02:34:33.547Z,20.83
2023-03-22T02:37:12.844Z,33.73
2023-03-22T02:39:45.420Z,20.23
2023-03-22T02:42:30.033Z,23.97
2023-03-22T02:45:01.035Z,19.57
2023-03-22T02:47:38.417Z,30.53
2023-03-22T02:50:11.242Z,18.23
2023-03-22T02:52:41.811Z,23.30
2023-03-22T02:55:13.634Z,32.00
2023-03-22T02:57:45.219Z,29.43
2023-03-22T03:00:15.826Z,29.10
2023-03-22T03:02:46.862Z,17.23
2023-03-22T03:05:16.478Z,19.47
2023-03-22T03:07:45.961Z,17.83
2023-03-22T03:10:17.367Z,17.33
2023-03-22T03:12:45.206Z,22.47
2023-03-22T03:15:16.269Z,17.27
2023-03-22T03:17:59.769Z,21.57
2023-03-22T03:20:31.943Z,18.87
2023-03-22T03:23:13.640Z,17.53
2023-03-22T03:25:49.872Z,18.00
2023-03-22T03:28:23.124Z,18.43
2023-03-22T03:30:57.192Z,17.80
2023-03-22T03:33:26.959Z,17.80
2023-03-22T03:35:58.306Z,16.60
2023-03-22T03:38:28.805Z,16.90
2023-03-22T03:41:00.518Z,17.93
2023-03-22T03:43:28.395Z,16.93
2023-03-22T03:45:56.765Z,16.37
2023-03-22T03:48:27.917Z,16.87
2023-03-22T03:50:57.481Z,16.17
2023-03-22T03:53:25.555Z,15.53
2023-03-22T03:55:53.614Z,16.57
2023-03-22T03:58:23.298Z,17.30
2023-03-22T04:00:51.663Z,15.53
2023-03-22T04:03:31.228Z,15.83
2023-03-22T04:06:14.169Z,15.67
2023-03-22T04:08:46.791Z,15.80
2023-03-22T04:11:17.376Z,14.80
2023-03-22T04:13:49.678Z,15.00
2023-03-22T04:16:21.755Z,15.57
2023-03-22T04:18:50.153Z,14.87
2023-03-22T04:21:18.111Z,14.70
2023-03-22T04:23:56.187Z,14.27
2023-03-22T04:26:26.648Z,14.13
2023-03-22T04:29:36.148Z,14.20
2023-03-22T04:32:26.158Z,13.87
2023-03-22T04:34:55.730Z,14.50
2023-03-22T04:37:24.713Z,13.70
2023-03-22T04:39:56.809Z,14.43
2023-03-22T04:42:48.905Z,14.70
2023-03-22T04:45:29.148Z,14.00
2023-03-22T04:48:00.902Z,14.83
2023-03-22T04:50:29.153Z,14.43
2023-03-22T04:53:01.227Z,14.10
2023-03-22T04:55:29.995Z,14.27
2023-03-22T04:57:57.893Z,14.63
2023-03-22T05:00:30.363Z,14.57
2023-03-22T05:02:59.209Z,14.97
2023-03-22T05:05:50.967Z,14.10
2023-03-22T05:08:18.774Z,14.70
2023-03-22T05:10:48.902Z,14.60
2023-03-22T05:13:16.731Z,14.83
2023-03-22T05:15:49.105Z,14.97
2023-03-22T05:18:21.453Z,14.70
2023-03-22T05:20:49.630Z,14.20
2023-03-22T05:23:21.674Z,14.87
2023-03-22T05:25:54.302Z,14.67
2023-03-22T05:28:23.372Z,14.83
2023-03-22T05:30:59.152Z,14.87
2023-03-22T05:33:39.185Z,14.80
2023-03-22T05:36:11.187Z,14.37
2023-03-22T05:38:49.783Z,14.33
2023-03-22T05:41:19.316Z,14.83
2023-03-22T05:43:47.420Z,16.70
2023-03-22T05:46:17.219Z,15.50
2023-03-22T05:49:07.852Z,15.43
2023-03-22T05:51:41.432Z,15.30
2023-03-22T05:54:10.836Z,14.10
2023-03-22T05:56:45.132Z,14.87
2023-03-22T05:59:12.984Z,13.53
2023-03-22T06:01:42.725Z,15.23
2023-03-22T06:04:20.938Z,15.17
2023-03-22T06:06:56.389Z,14.80
2023-03-22T06:09:49.415Z,14.80
2023-03-22T06:12:24.708Z,15.63
2023-03-22T06:15:01.890Z,15.83
2023-03-22T06:17:37.789Z,16.30
2023-03-22T06:20:12.119Z,14.93
2023-03-22T06:22:43.491Z,14.77
2023-03-22T06:25:11.839Z,16.07
2023-03-22T06:27:45.336Z,15.10
2023-03-22T06:30:13.785Z,15.47
2023-03-22T06:33:04.970Z,15.93
2023-03-22T06:35:35.804Z,15.97
2023-03-22T06:38:05.435Z,15.07
2023-03-22T06:40:35.710Z,15.63
2023-03-22T06:43:06.746Z,15.27
2023-03-22T06:45:36.375Z,14.93
2023-03-22T06:48:07.768Z,15.20
2023-03-22T06:50:48.855Z,15.40
2023-03-22T06:53:21.328Z,15.10
2023-03-22T06:55:49.707Z,14.13
2023-03-22T06:58:24.437Z,14.93
2023-03-22T07:00:52.796Z,15.73
2023-03-22T07:03:25.269Z,15.20
2023-03-22T07:06:02.646Z,14.77
2023-03-22T07:08:33.035Z,15.23
2023-03-22T07:11:00.947Z,15.40
2023-03-22T07:13:28.922Z,16.57
2023-03-22T07:16:02.427Z,14.97
2023-03-22T07:18:37.712Z,14.37
2023-03-22T07:21:06.146Z,14.07
2023-03-22T07:23:35.717Z,13.87
2023-03-22T07:26:09.295Z,14.93
2023-03-22T07:28:41.413Z,14.77
2023-03-22T07:31:13.012Z,13.27
2023-03-22T07:34:08.545Z,14.87
2023-03-22T07:36:59.293Z,13.53
2023-03-22T07:39:28.930Z,14.20
2023-03-22T07:41:57.280Z,13.90
2023-03-22T07:44:25.386Z,13.83
2023-03-22T07:47:20.290Z,13.60
2023-03-22T07:50:17.616Z,12.93
2023-03-22T07:52:47.447Z,12.83
2023-03-22T07:55:16.035Z,12.50
2023-03-22T07:57:44.610Z,11.93
2023-03-22T08:00:16.014Z,12.47
2023-03-22T08:02:46.240Z,11.97
2023-03-22T08:05:41.670Z,10.90
2023-03-22T08:08:11.016Z,10.90
2023-03-22T08:10:39.535Z,10.53
2023-03-22T08:13:07.652Z,10.50
2023-03-22T08:15:37.385Z,10.07
2023-03-22T08:18:05.738Z,9.73
2023-03-22T08:20:39.259Z,9.53
2023-03-22T08:23:15.850Z,10.20
2023-03-22T08:26:02.201Z,10.90
2023-03-22T08:28:30.170Z,10.00
2023-03-22T08:30:58.119Z,9.57
2023-03-22T08:33:26.462Z,10.10
2023-03-22T08:36:05.807Z,10.13
2023-03-22T08:38:34.389Z,10.03
2023-03-22T08:41:03.258Z,10.30
2023-03-22T08:43:31.121Z,10.23
2023-03-22T08:45:59.327Z,9.07
2023-03-22T08:48:29.051Z,9.50
2023-03-22T08:51:19.385Z,9.83
2023-03-22T08:54:13.595Z,9.23
2023-03-22T08:56:54.612Z,10.20
2023-03-22T08:59:36.608Z,10.13
2023-03-22T09:02:23.443Z,9.57
2023-03-22T09:04:51.383Z,9.93
2023-03-22T09:07:21.279Z,9.00
2023-03-22T09:09:57.964Z,9.63
2023-03-22T09:12:27.573Z,9.37
2023-03-22T09:14:56.930Z,9.03
2023-03-22T09:17:27.278Z,8.57
2023-03-22T09:20:09.474Z,8.30
2023-03-22T09:22:41.876Z,8.63
2023-03-22T09:25:13.011Z,10.03
2023-03-22T09:27:43.663Z,8.87
2023-03-22T09:30:12.136Z,8.90
2023-03-22T09:32:39.998Z,8.97
2023-03-22T09:35:08.327Z,8.67
2023-03-22T09:37:49.142Z,9.23
2023-03-22T09:40:17.401Z,7.93
2023-03-22T09:42:47.694Z,7.90
2023-03-22T09:45:20.297Z,8.97
2023-03-22T09:47:51.350Z,9.30
2023-03-22T09:50:22.485Z,10.20
2023-03-22T09:52:52.084Z,8.80
2023-03-22T09:55:23.007Z,9.50
2023-03-22T09:57:57.783Z,8.43
2023-03-22T10:00:32.098Z,8.90
2023-03-22T10:03:04.468Z,9.10
2023-03-22T10:05:36.709Z,7.50
2023-03-22T10:08:15.374Z,8.17
2023-03-22T10:10:43.856Z,8.10
2023-03-22T10:13:19.671Z,7.53
2023-03-22T10:15:49.427Z,7.33
2023-03-22T10:18:20.573Z,7.50
2023-03-22T10:20:53.933Z,7.80
2023-03-22T10:23:29.051Z,7.27
2023-03-22T10:25:57.842Z,6.77
2023-03-22T10:28:28.856Z,7.37
2023-03-22T10:30:59.434Z,8.00
2023-03-22T10:33:36.732Z,7.03
2023-03-22T10:36:05.836Z,7.23
2023-03-22T10:38:38.258Z,6.80
2023-03-22T10:41:07.237Z,7.10
2023-03-22T10:43:36.801Z,6.90
2023-03-22T10:46:07.605Z,6.40
2023-03-22T10:48:38.546Z,6.50
2023-03-22T10:51:07.953Z,6.30
2023-03-22T10:53:39.826Z,6.27
2023-03-22T10:56:12.819Z,6.40
2023-03-22T10:58:40.752Z,6.40
2023-03-22T11:01:10.934Z,6.07
2023-03-22T11:03:40.679Z,6.53
2023-03-22T11:06:11.080Z,5.73
2023-03-22T11:08:46.097Z,5.90
2023-03-22T11:11:25.430Z,5.40
2023-03-22T11:13:56.663Z,6.10
2023-03-22T11:16:24.749Z,6.03
2023-03-22T11:18:52.854Z,6.03
2023-03-22T11:21:21.328Z,6.50
2023-03-22T11:23:57.185Z,5.77
2023-03-22T11:26:31.190Z,5.67
2023-03-22T11:29:06.646Z,5.50
2023-03-22T11:31:57.061Z,5.80
2023-03-22T11:34:27.684Z,5.30
2023-03-22T11:36:57.454Z,5.37
2023-03-22T11:39:28.989Z,5.40
2023-03-22T11:42:00.131Z,6.40
2023-03-22T11:44:29.562Z,5.83
2023-03-22T11:47:00.310Z,5.13
2023-03-22T11:49:36.188Z,5.10
2023-03-22T11:52:10.249Z,4.03
2023-03-22T11:54:42.231Z,4.57
2023-03-22T11:57:13.423Z,4.10
2023-03-22T11:59:47.763Z,3.93
2023-03-22T12:02:19.537Z,4.47
2023-03-22T12:04:49.669Z,4.10
2023-03-22T12:07:21.463Z,5.07
2023-03-22T12:09:54.069Z,4.80
2023-03-22T12:12:23.975Z,4.10
2023-03-22T12:14:54.082Z,4.27
2023-03-22T12:17:29.168Z,3.80
2023-03-22T12:20:06.751Z,3.77
2023-03-22T12:22:36.379Z,3.90
2023-03-22T12:25:13.149Z,3.40
2023-03-22T12:27:42.981Z,3.40
2023-03-22T12:30:15.030Z,3.60
2023-03-22T12:32:45.173Z,3.70
2023-03-22T12:35:17.950Z,3.93
2023-03-22T12:37:48.066Z,4.40
2023-03-22T12:40:25.605Z,4.53
2023-03-22T12:43:00.659Z,4.10
2023-03-22T12:45:31.262Z,4.47
2023-03-22T12:48:04.960Z,4.60
2023-03-22T12:50:36.883Z,6.90
2023-03-22T12:53:05.751Z,3.97
2023-03-22T12:55:36.671Z,5.37
2023-03-22T12:58:07.316Z,4.13
2023-03-22T13:00:39.759Z,4.93
2023-03-22T13:03:10.772Z,5.70
2023-03-22T13:05:38.991Z,7.50
2023-03-22T13:08:07.098Z,5.30
2023-03-22T13:11:06.287Z,4.63
2023-03-22T13:13:45.624Z,5.20
2023-03-22T13:16:25.021Z,3.40
2023-03-22T13:19:04.193Z,3.23
2023-03-22T13:21:39.063Z,4.30
2023-03-22T13:24:23.777Z,2.87
2023-03-22T13:26:52.789Z,6.37
2023-03-22T13:29:24.409Z,2.30
2023-03-22T13:31:58.489Z,5.40
2023-03-22T13:34:38.523Z,5.67
2023-03-22T13:37:10.992Z,3.13
2023-03-22T13:39:40.805Z,4.00
2023-03-22T13:42:14.419Z,3.00
2023-03-22T13:44:45.995Z,2.93
2023-03-22T13:47:33.878Z,4.40
2023-03-22T13:50:07.173Z,4.40
2023-03-22T13:52:38.139Z,2.90
2023-03-22T13:55:18.082Z,3.00
2023-03-22T13:57:50.183Z,3.30
2023-03-22T14:00:39.062Z,3.90
2023-03-22T14:03:13.578Z,3.67
2023-03-22T14:05:44.165Z,3.40
2023-03-22T14:08:20.468Z,3.33
2023-03-22T14:10:52.069Z,3.57
2023-03-22T14:13:24.844Z,3.40
2023-03-22T14:15:57.012Z,2.70
2023-03-22T14:18:28.602Z,2.80
2023-03-22T14:20:59.173Z,2.90
